Forside
METAR-TAF:

METAR-TAF

Lufthavne :

Fort Wayne, Indiana, USA

Breddekreds: 40-58-42N, længdekreds: 085-11-43W, højde: 248 m

Aktuelle vejr

Denne rapport blev lavet for 10 minutter siden, kl. 12:23 UTC
Vind 4 kt fra nord
Temperatur 1°C
Fugtighed 86%
Tryk 1017 hPa
Sigt: 16.1 km
Overskyet i en højde af 3000 ft

METAR: KFWA 311223Z 01004KT 10SM OVC030 01/M01 A3002 RMK AO2 T00111006

Tid: 08:33 (12:33 UTC)

Vejrudsigter

Denne rapport blev lavet for 1 time og 12 minutter siden, kl. 11:21 UTC
Foreløbig gælder fra 31 på 12 UTC til 01 på 12 UTC
Vind 5 kt fra nordnordøst
Sigt: 10 km
Spredte skyer i en højde af 2500 ft
Brudte skyer i en højde af 5000 ft
Fra 31 på 1400 UTC
Vind 6 kt fra nordøst
Sigt: 10 km
Brudte skyer i en højde af 2000 ft
Fra 31 på 2100 UTC
Vind 8 kt fra nord
Sigt: 10 km
Brudte skyer i en højde af 1500 ft
byger i nærheden

TAF: KFWA 311121Z 3112/0112 02005KT P6SM SCT025 BKN050 FM311400 04006KT P6SM BKN020 FM312100 01008KT P6SM VCSH BKN015

Vejrobservationer og prognoser fra mere end 4000 lufthavne (METAR og TAF).

De gule og røde prikker repræsenterer de meteorologiske stationer.

Flyt musen over at se navnet på stationen.

Så klik over at se vejr observationer og prognoser.

At skifte det kort: Klik på de grønne knapper med et sort kors for at zoome ind; på den grønne knap med en bindestreg for at zoome ud; eller på de grønne pile for tilstødende kort.


METAR-TAF: